Portada
METAR-TAF:

METAR-TAF

Aeropuertos :

Gran Canaria, España

Aeropuerto de Gran Canaria

latitud: 27-56N, longitud: 015-23W, altitud: 23 m

Observación

El informe se hizo hace 15 minutos, a las 05:30 UTC
Viento 15 kt del norte, variando entre norte-noroeste y noreste
Temperatura 24°C
Humedad 74%
Presión 1016 hPa
Visibilidad 10 km o más
Escasas nubes a una altura de 3000 ft

METAR: GCLP 240530Z 01015KT 340V040 9999 FEW030 24/19 Q1016 NOSIG

Hora: 06:45 (05:45 UTC)

Pronóstico

El informe se hizo hace 3 horas y 45 minutos, a las 02:00 UTC
Pronóstico válido del 24 a las 03 UTC al 25 a las 03 UTC
Viento 16 kt del norte
Visibilidad 10 km o más
Escasas nubes a una altura de 2000 ft

TAF: GCLP 240200Z 2403/2503 36016KT 9999 FEW020 TX31/2415Z TN26/2405Z

Observaciones y pronósticos meteorológicos de más de 4000 aeropuertos (mensajes METAR y TAF).

Los puntos amarillos y rojos representan las estaciones disponibles.

Ponga el ratón en el punto deseado para ver el nombre de la estación.

Haga clic para ver las observaciones y los pronósticos meteorológicos.

Para cambiar el mapa : haga clic en los botones verdes con una cruz de color negro para hacer un zoom, en el botón verde con un guión para alejar o en las flechas verdes para mapas adyacentes.


METAR-TAF: